sensor_id;sensor_type;location;lat;lon;timestamp;pressure;altitude;pressure_sealevel;temperature;humidity
13836;BME280;6988;52.614;13.500;2023-08-08T00:01:10;54235.38;;;-143.77;63.25
13836;BME280;6988;52.614;13.500;2023-08-08T00:06:02;54221.03;;;-143.77;63.52
13836;BME280;6988;52.614;13.500;2023-08-08T00:10:54;54251.78;;;-143.77;63.83
13836;BME280;6988;52.614;13.500;2023-08-08T00:15:47;54249.75;;;-143.77;64.19
13836;BME280;6988;52.614;13.500;2023-08-08T00:20:40;54268.22;;;-143.77;64.67
13836;BME280;6988;52.614;13.500;2023-08-08T00:25:32;54253.84;;;-143.77;64.88
13836;BME280;6988;52.614;13.500;2023-08-08T00:30:23;54241.53;;;-143.77;64.95
13836;BME280;6988;52.614;13.500;2023-08-08T00:35:16;54270.25;;;-143.77;65.28
13836;BME280;6988;52.614;13.500;2023-08-08T00:40:11;54245.63;;;-143.77;65.35
13836;BME280;6988;52.614;13.500;2023-08-08T00:45:04;54260.00;;;-143.77;65.35
13836;BME280;6988;52.614;13.500;2023-08-08T00:49:56;54253.84;;;-143.77;65.98
13836;BME280;6988;52.614;13.500;2023-08-08T00:54:48;54280.53;;;-143.77;65.83
13836;BME280;6988;52.614;13.500;2023-08-08T00:59:42;54296.94;;;-143.77;65.89
13836;BME280;6988;52.614;13.500;2023-08-08T01:04:34;54278.47;;;-143.77;65.52
13836;BME280;6988;52.614;13.500;2023-08-08T01:09:33;54260.00;;;-143.77;65.82
13836;BME280;6988;52.614;13.500;2023-08-08T01:14:29;54282.56;;;-143.77;65.80
13836;BME280;6988;52.614;13.500;2023-08-08T01:19:28;54282.56;;;-143.77;65.58
13836;BME280;6988;52.614;13.500;2023-08-08T01:24:24;54262.06;;;-143.77;65.47
13836;BME280;6988;52.614;13.500;2023-08-08T01:29:19;54264.09;;;-143.77;65.13
13836;BME280;6988;52.614;13.500;2023-08-08T01:34:11;54274.38;;;-143.77;65.23
13836;BME280;6988;52.614;13.500;2023-08-08T01:39:13;54280.53;;;-143.77;64.66
13836;BME280;6988;52.614;13.500;2023-08-08T01:44:07;54249.75;;;-143.77;64.36
13836;BME280;6988;52.614;13.500;2023-08-08T01:48:59;54266.16;;;-143.77;64.07
13836;BME280;6988;52.614;13.500;2023-08-08T01:53:51;54282.56;;;-143.77;63.79
13836;BME280;6988;52.614;13.500;2023-08-08T01:58:43;54284.63;;;-143.77;63.65
13836;BME280;6988;52.614;13.500;2023-08-08T02:03:36;54280.53;;;-143.77;63.42
13836;BME280;6988;52.614;13.500;2023-08-08T02:08:29;54311.28;;;-143.77;63.29
13836;BME280;6988;52.614;13.500;2023-08-08T02:13:20;54257.94;;;-143.77;62.89
13836;BME280;6988;52.614;13.500;2023-08-08T02:18:12;54257.94;;;-143.77;63.42
13836;BME280;6988;52.614;13.500;2023-08-08T02:23:06;54270.25;;;-143.77;63.26
13836;BME280;6988;52.614;13.500;2023-08-08T02:27:58;54276.41;;;-143.77;63.25
13836;BME280;6988;52.614;13.500;2023-08-08T02:32:49;54317.44;;;-143.77;63.39
13836;BME280;6988;52.614;13.500;2023-08-08T02:37:42;54266.16;;;-143.77;63.68
13836;BME280;6988;52.614;13.500;2023-08-08T02:42:35;54319.50;;;-143.77;64.14
13836;BME280;6988;52.614;13.500;2023-08-08T02:47:27;54292.84;;;-143.77;64.56
13836;BME280;6988;52.614;13.500;2023-08-08T02:52:19;54307.19;;;-143.77;65.08
13836;BME280;6988;52.614;13.500;2023-08-08T02:57:11;54282.56;;;-143.77;65.79
13836;BME280;6988;52.614;13.500;2023-08-08T03:02:06;54282.56;;;-143.77;66.17
13836;BME280;6988;52.614;13.500;2023-08-08T03:07:00;54276.41;;;-143.77;66.70
13836;BME280;6988;52.614;13.500;2023-08-08T03:11:55;54311.28;;;-143.77;66.88
13836;BME280;6988;52.614;13.500;2023-08-08T03:16:47;54301.03;;;-143.77;67.58
13836;BME280;6988;52.614;13.500;2023-08-08T03:21:41;54335.91;;;-143.77;67.91
13836;BME280;6988;52.614;13.500;2023-08-08T03:26:33;54325.66;;;-143.77;68.52
13836;BME280;6988;52.614;13.500;2023-08-08T03:31:25;54294.88;;;-143.77;69.11
13836;BME280;6988;52.614;13.500;2023-08-08T03:36:18;54331.81;;;-143.77;69.29
13836;BME280;6988;52.614;13.500;2023-08-08T03:41:13;54327.72;;;-143.77;69.59
13836;BME280;6988;52.614;13.500;2023-08-08T03:46:05;54276.41;;;-143.77;69.96
13836;BME280;6988;52.614;13.500;2023-08-08T03:50:56;54286.69;;;-143.77;70.13
13836;BME280;6988;52.614;13.500;2023-08-08T03:55:48;54292.84;;;-143.77;69.96
13836;BME280;6988;52.614;13.500;2023-08-08T04:00:43;54348.22;;;-143.77;70.06
13836;BME280;6988;52.614;13.500;2023-08-08T04:05:36;54294.88;;;-143.77;70.12
13836;BME280;6988;52.614;13.500;2023-08-08T04:10:28;54303.09;;;-143.77;70.13
13836;BME280;6988;52.614;13.500;2023-08-08T04:15:20;54292.84;;;-143.77;70.11
13836;BME280;6988;52.614;13.500;2023-08-08T04:20:13;54266.16;;;-143.77;69.88
13836;BME280;6988;52.614;13.500;2023-08-08T04:25:06;54301.03;;;-143.77;70.07
13836;BME280;6988;52.614;13.500;2023-08-08T04:29:58;54307.19;;;-143.77;69.98
13836;BME280;6988;52.614;13.500;2023-08-08T04:34:50;54303.09;;;-143.77;70.32
13836;BME280;6988;52.614;13.500;2023-08-08T04:39:43;54292.84;;;-143.77;70.65
13836;BME280;6988;52.614;13.500;2023-08-08T04:44:35;54309.25;;;-143.77;70.84
13836;BME280;6988;52.614;13.500;2023-08-08T04:49:26;54294.88;;;-143.77;70.85
13836;BME280;6988;52.614;13.500;2023-08-08T04:54:19;54274.38;;;-143.77;70.88
13836;BME280;6988;52.614;13.500;2023-08-08T04:59:12;54288.72;;;-143.77;70.87
13836;BME280;6988;52.614;13.500;2023-08-08T05:04:04;54270.25;;;-143.77;70.60
13836;BME280;6988;52.614;13.500;2023-08-08T05:08:56;54255.91;;;-143.77;70.64
13836;BME280;6988;52.614;13.500;2023-08-08T05:13:48;54282.56;;;-143.77;70.51
13836;BME280;6988;52.614;13.500;2023-08-08T05:18:41;54257.94;;;-143.77;70.33
13836;BME280;6988;52.614;13.500;2023-08-08T05:23:34;54253.84;;;-143.77;70.38
13836;BME280;6988;52.614;13.500;2023-08-08T05:28:26;54257.94;;;-143.77;70.32
13836;BME280;6988;52.614;13.500;2023-08-08T05:33:18;54233.31;;;-143.77;70.07
13836;BME280;6988;52.614;13.500;2023-08-08T05:38:12;54284.63;;;-143.77;70.02
13836;BME280;6988;52.614;13.500;2023-08-08T05:43:04;54216.91;;;-143.77;69.79
13836;BME280;6988;52.614;13.500;2023-08-08T05:47:56;54216.91;;;-143.77;69.50
13836;BME280;6988;52.614;13.500;2023-08-08T05:52:47;54206.66;;;-143.77;69.07
13836;BME280;6988;52.614;13.500;2023-08-08T05:57:42;54198.44;;;-143.77;68.28
13836;BME280;6988;52.614;13.500;2023-08-08T06:02:34;54192.28;;;-143.77;67.75
13836;BME280;6988;52.614;13.500;2023-08-08T06:07:27;54184.09;;;-143.77;67.26
13836;BME280;6988;52.614;13.500;2023-08-08T06:12:18;54188.19;;;-143.77;67.78
13836;BME280;6988;52.614;13.500;2023-08-08T06:17:14;54198.44;;;-143.77;67.77
13836;BME280;6988;52.614;13.500;2023-08-08T06:22:06;54210.75;;;-143.77;67.74
13836;BME280;6988;52.614;13.500;2023-08-08T06:26:58;54149.22;;;-143.77;66.83
13836;BME280;6988;52.614;13.500;2023-08-08T06:31:51;54130.75;;;-143.77;66.43
13836;BME280;6988;52.614;13.500;2023-08-08T06:36:44;54163.56;;;-143.77;66.23
13836;BME280;6988;52.614;13.500;2023-08-08T06:41:37;54138.94;;;-143.77;66.14
13836;BME280;6988;52.614;13.500;2023-08-08T06:46:29;54136.91;;;-143.77;65.91
13836;BME280;6988;52.614;13.500;2023-08-08T06:51:21;54151.25;;;-143.77;66.24
13836;BME280;6988;52.614;13.500;2023-08-08T06:56:15;54147.16;;;-143.77;66.27
13836;BME280;6988;52.614;13.500;2023-08-08T07:01:09;54118.44;;;-143.77;66.17
13836;BME280;6988;52.614;13.500;2023-08-08T07:06:01;54138.94;;;-143.77;66.01
13836;BME280;6988;52.614;13.500;2023-08-08T07:10:53;54159.47;;;-143.77;66.10
13836;BME280;6988;52.614;13.500;2023-08-08T07:15:49;54118.44;;;-143.77;65.35
13836;BME280;6988;52.614;13.500;2023-08-08T07:20:41;54042.50;;;-143.77;65.30
13836;BME280;6988;52.614;13.500;2023-08-08T07:25:33;54065.09;;;-143.77;65.03
13836;BME280;6988;52.614;13.500;2023-08-08T07:30:25;54067.13;;;-143.77;64.76
13836;BME280;6988;52.614;13.500;2023-08-08T07:35:19;54087.66;;;-143.77;63.96
13836;BME280;6988;52.614;13.500;2023-08-08T07:40:14;54019.94;;;-143.77;64.07
13836;BME280;6988;52.614;13.500;2023-08-08T07:45:08;54075.34;;;-143.77;63.15
13836;BME280;6988;52.614;13.500;2023-08-08T07:50:00;54065.09;;;-143.77;62.82
13836;BME280;6988;52.614;13.500;2023-08-08T07:54:54;54089.72;;;-143.77;63.49
13836;BME280;6988;52.614;13.500;2023-08-08T07:59:46;54067.13;;;-143.77;62.40
13836;BME280;6988;52.614;13.500;2023-08-08T08:04:38;54058.94;;;-143.77;63.06
13836;BME280;6988;52.614;13.500;2023-08-08T08:09:29;54024.06;;;-143.77;62.46
13836;BME280;6988;52.614;13.500;2023-08-08T08:14:23;53915.31;;;-143.77;62.36
13836;BME280;6988;52.614;13.500;2023-08-08T08:19:15;53944.03;;;-143.77;61.15
13836;BME280;6988;52.614;13.500;2023-08-08T08:24:07;53985.06;;;-143.77;60.17
13836;BME280;6988;52.614;13.500;2023-08-08T08:28:59;54024.06;;;-143.77;60.21
13836;BME280;6988;52.614;13.500;2023-08-08T08:33:52;54007.63;;;-143.77;60.97
13836;BME280;6988;52.614;13.500;2023-08-08T08:38:45;54042.50;;;-143.77;61.52
13836;BME280;6988;52.614;13.500;2023-08-08T08:43:37;54040.47;;;-143.77;61.82
13836;BME280;6988;52.614;13.500;2023-08-08T08:48:30;54040.47;;;-143.77;60.64
13836;BME280;6988;52.614;13.500;2023-08-08T08:53:24;54060.97;;;-143.77;60.34
13836;BME280;6988;52.614;13.500;2023-08-08T08:58:18;54028.16;;;-143.77;60.39
13836;BME280;6988;52.614;13.500;2023-08-08T09:03:11;53946.09;;;-143.77;59.76
13836;BME280;6988;52.614;13.500;2023-08-08T09:08:04;53861.97;;;-143.77;59.51
13836;BME280;6988;52.614;13.500;2023-08-08T09:12:57;53948.13;;;-143.77;58.05
13836;BME280;6988;52.614;13.500;2023-08-08T09:17:49;53818.88;;;-143.77;57.46
13836;BME280;6988;52.614;13.500;2023-08-08T09:22:41;53888.63;;;-143.77;56.64
13836;BME280;6988;52.614;13.500;2023-08-08T09:27:33;53896.84;;;-143.77;55.75
13836;BME280;6988;52.614;13.500;2023-08-08T09:32:30;53929.69;;;-143.77;56.78
13836;BME280;6988;52.614;13.500;2023-08-08T09:37:22;53950.19;;;-143.77;56.60
13836;BME280;6988;52.614;13.500;2023-08-08T09:42:14;53853.75;;;-143.77;57.41
13836;BME280;6988;52.614;13.500;2023-08-08T09:47:06;53974.81;;;-143.77;56.73
13836;BME280;6988;52.614;13.500;2023-08-08T09:52:00;53950.19;;;-143.77;56.00
13836;BME280;6988;52.614;13.500;2023-08-08T09:56:52;53859.91;;;-143.77;55.15
13836;BME280;6988;52.614;13.500;2023-08-08T10:01:46;53946.09;;;-143.77;54.53
13836;BME280;6988;52.614;13.500;2023-08-08T10:06:38;53985.06;;;-143.77;54.50
13836;BME280;6988;52.614;13.500;2023-08-08T10:11:32;54019.94;;;-143.77;63.88
13836;BME280;6988;52.614;13.500;2023-08-08T10:16:24;54032.25;;;-143.77;66.30
13836;BME280;6988;52.614;13.500;2023-08-08T10:21:18;53837.34;;;-143.77;68.03
13836;BME280;6988;52.614;13.500;2023-08-08T10:26:18;53802.47;;;-143.77;66.71
13836;BME280;6988;52.614;13.500;2023-08-08T10:31:20;53839.41;;;-143.77;64.09
13836;BME280;6988;52.614;13.500;2023-08-08T10:36:13;53687.59;;;-143.77;62.04
13836;BME280;6988;52.614;13.500;2023-08-08T10:41:09;53675.28;;;-143.77;59.25
13836;BME280;6988;52.614;13.500;2023-08-08T10:46:04;53662.97;;;-143.77;56.82
13836;BME280;6988;52.614;13.500;2023-08-08T10:50:59;53839.41;;;-143.77;56.11
13836;BME280;6988;52.614;13.500;2023-08-08T10:55:58;53937.88;;;-143.77;56.42
13836;BME280;6988;52.614;13.500;2023-08-08T11:00:52;53958.41;;;-143.77;62.56
13836;BME280;6988;52.614;13.500;2023-08-08T11:11:43;53839.41;;;-143.77;63.89
13836;BME280;6988;52.614;13.500;2023-08-08T11:16:35;53798.38;;;-143.77;62.08
13836;BME280;6988;52.614;13.500;2023-08-08T11:21:27;53720.41;;;-143.77;61.79
13836;BME280;6988;52.614;13.500;2023-08-08T11:26:18;53691.69;;;-143.77;55.61
13836;BME280;6988;52.614;13.500;2023-08-08T11:31:12;53761.44;;;-143.77;52.37
13836;BME280;6988;52.614;13.500;2023-08-08T11:36:05;53847.59;;;-143.77;53.44
13836;BME280;6988;52.614;13.500;2023-08-08T11:40:58;53839.41;;;-143.77;49.60
13836;BME280;6988;52.614;13.500;2023-08-08T11:45:52;53630.16;;;-143.77;47.62
13836;BME280;6988;52.614;13.500;2023-08-08T11:50:49;53611.69;;;-143.77;46.28
13836;BME280;6988;52.614;13.500;2023-08-08T11:55:41;53607.59;;;-143.77;45.64
13836;BME280;6988;52.614;13.500;2023-08-08T12:00:33;53634.25;;;-143.77;45.44
13836;BME280;6988;52.614;13.500;2023-08-08T12:05:26;53615.78;;;-143.77;47.08
13836;BME280;6988;52.614;13.500;2023-08-08T12:10:21;53615.78;;;-143.77;45.52
13836;BME280;6988;52.614;13.500;2023-08-08T12:15:14;53609.63;;;-143.77;45.99
13836;BME280;6988;52.614;13.500;2023-08-08T12:20:33;53599.38;;;-143.77;45.95
13836;BME280;6988;52.614;13.500;2023-08-08T12:26:17;53749.13;;;-143.77;47.22
13836;BME280;6988;52.614;13.500;2023-08-08T12:31:09;53576.81;;;-143.77;46.30
13836;BME280;6988;52.614;13.500;2023-08-08T12:36:01;53765.53;;;-143.77;46.18
13836;BME280;6988;52.614;13.500;2023-08-08T12:40:53;53572.72;;;-143.77;44.20
13836;BME280;6988;52.614;13.500;2023-08-08T12:45:46;53699.91;;;-143.77;43.91
13836;BME280;6988;52.614;13.500;2023-08-08T12:50:39;53509.09;;;-143.77;43.79
13836;BME280;6988;52.614;13.500;2023-08-08T12:55:31;53693.75;;;-143.77;44.46
13836;BME280;6988;52.614;13.500;2023-08-08T13:00:23;53769.66;;;-143.77;44.54
13836;BME280;6988;52.614;13.500;2023-08-08T13:05:16;53814.78;;;-143.77;48.42
13836;BME280;6988;52.614;13.500;2023-08-08T13:10:08;53843.50;;;-143.77;49.41
13836;BME280;6988;52.614;13.500;2023-08-08T13:15:00;53804.53;;;-143.77;49.14
13836;BME280;6988;52.614;13.500;2023-08-08T13:19:52;53621.94;;;-143.77;50.41
13836;BME280;6988;52.614;13.500;2023-08-08T13:24:45;53595.28;;;-143.77;49.47
13836;BME280;6988;52.614;13.500;2023-08-08T13:29:37;53784.00;;;-143.77;49.29
13836;BME280;6988;52.614;13.500;2023-08-08T13:34:29;53589.13;;;-143.77;48.19
13836;BME280;6988;52.614;13.500;2023-08-08T13:39:21;53722.47;;;-143.77;48.34
13836;BME280;6988;52.614;13.500;2023-08-08T13:44:14;53757.34;;;-143.77;48.76
13836;BME280;6988;52.614;13.500;2023-08-08T13:49:06;53810.69;;;-143.77;49.89
13836;BME280;6988;52.614;13.500;2023-08-08T13:53:58;53855.81;;;-143.77;56.63
13836;BME280;6988;52.614;13.500;2023-08-08T13:58:50;53894.78;;;-143.77;59.93
13836;BME280;6988;52.614;13.500;2023-08-08T14:03:43;53880.44;;;-143.77;59.82
13836;BME280;6988;52.614;13.500;2023-08-08T14:08:35;53820.94;;;-143.77;60.32
13836;BME280;6988;52.614;13.500;2023-08-08T14:13:27;53792.22;;;-143.77;58.26
13836;BME280;6988;52.614;13.500;2023-08-08T14:18:19;53818.88;;;-143.77;54.07
13836;BME280;6988;52.614;13.500;2023-08-08T14:23:13;53835.31;;;-143.77;52.30
13836;BME280;6988;52.614;13.500;2023-08-08T14:28:05;53816.84;;;-143.77;49.54
13836;BME280;6988;52.614;13.500;2023-08-08T14:32:57;53786.06;;;-143.77;51.32
13836;BME280;6988;52.614;13.500;2023-08-08T14:37:49;53796.31;;;-143.77;52.60
13836;BME280;6988;52.614;13.500;2023-08-08T14:42:42;53728.63;;;-143.77;51.83
13836;BME280;6988;52.614;13.500;2023-08-08T14:47:34;53720.41;;;-143.77;48.88
13836;BME280;6988;52.614;13.500;2023-08-08T14:52:25;53839.41;;;-143.77;49.58
13836;BME280;6988;52.614;13.500;2023-08-08T14:57:17;53827.09;;;-143.77;51.01
13836;BME280;6988;52.614;13.500;2023-08-08T15:02:10;53757.34;;;-143.77;54.75
13836;BME280;6988;52.614;13.500;2023-08-08T15:07:05;53859.91;;;-143.77;55.94
13836;BME280;6988;52.614;13.500;2023-08-08T15:11:57;53882.50;;;-143.77;55.63
13836;BME280;6988;52.614;13.500;2023-08-08T15:16:51;53937.88;;;-143.77;54.90
13836;BME280;6988;52.614;13.500;2023-08-08T15:21:44;53909.16;;;-143.77;54.40
13836;BME280;6988;52.614;13.500;2023-08-08T15:26:36;53954.28;;;-143.77;56.20
13836;BME280;6988;52.614;13.500;2023-08-08T15:31:30;53952.25;;;-143.77;57.82
13836;BME280;6988;52.614;13.500;2023-08-08T15:36:23;53966.59;;;-143.77;61.26
13836;BME280;6988;52.614;13.500;2023-08-08T15:41:16;54022.00;;;-143.77;64.93
13836;BME280;6988;52.614;13.500;2023-08-08T15:46:08;54048.66;;;-143.77;66.79
13836;BME280;6988;52.614;13.500;2023-08-08T15:51:00;54065.09;;;-143.77;67.92
13836;BME280;6988;52.614;13.500;2023-08-08T15:55:51;54028.16;;;-143.77;68.70
13836;BME280;6988;52.614;13.500;2023-08-08T16:00:45;54019.94;;;-143.77;67.91
13836;BME280;6988;52.614;13.500;2023-08-08T16:05:37;54038.41;;;-143.77;68.93
13836;BME280;6988;52.614;13.500;2023-08-08T16:10:29;54034.31;;;-143.77;70.09
13836;BME280;6988;52.614;13.500;2023-08-08T16:15:20;54040.47;;;-143.77;70.51
13836;BME280;6988;52.614;13.500;2023-08-08T16:20:18;54048.66;;;-143.77;69.94
13836;BME280;6988;52.614;13.500;2023-08-08T16:25:10;54052.78;;;-143.77;68.85
13836;BME280;6988;52.614;13.500;2023-08-08T16:30:03;54077.41;;;-143.77;68.11
13836;BME280;6988;52.614;13.500;2023-08-08T16:34:55;54138.94;;;-143.77;69.22
13836;BME280;6988;52.614;13.500;2023-08-08T16:39:55;54124.59;;;-143.77;70.21
13836;BME280;6988;52.614;13.500;2023-08-08T16:44:56;54233.31;;;-143.77;71.69
13836;BME280;6988;52.614;13.500;2023-08-08T16:49:50;54161.50;;;-143.77;73.12
13836;BME280;6988;52.614;13.500;2023-08-08T17:00:22;54169.72;;;-143.77;73.87
13836;BME280;6988;52.614;13.500;2023-08-08T17:05:14;54114.31;;;-143.77;74.99
13836;BME280;6988;52.614;13.500;2023-08-08T17:10:07;54134.84;;;-143.77;75.09
13836;BME280;6988;52.614;13.500;2023-08-08T17:15:00;54161.50;;;-143.77;74.65
13836;BME280;6988;52.614;13.500;2023-08-08T17:20:11;54190.25;;;-143.77;74.47
13836;BME280;6988;52.614;13.500;2023-08-08T17:25:04;54163.56;;;-143.77;74.45
13836;BME280;6988;52.614;13.500;2023-08-08T17:29:56;54214.88;;;-143.77;74.67
13836;BME280;6988;52.614;13.500;2023-08-08T17:34:48;54169.72;;;-143.77;74.57
13836;BME280;6988;52.614;13.500;2023-08-08T17:39:41;54175.88;;;-143.77;74.51
13836;BME280;6988;52.614;13.500;2023-08-08T17:44:33;54157.41;;;-143.77;74.58
13836;BME280;6988;52.614;13.500;2023-08-08T17:49:25;54177.94;;;-143.77;74.31
13836;BME280;6988;52.614;13.500;2023-08-08T17:54:17;54163.56;;;-143.77;74.31
13836;BME280;6988;52.614;13.500;2023-08-08T17:59:10;54169.72;;;-143.77;74.40
13836;BME280;6988;52.614;13.500;2023-08-08T18:04:02;54161.50;;;-143.77;75.07
13836;BME280;6988;52.614;13.500;2023-08-08T18:08:55;54167.66;;;-143.77;75.05
13836;BME280;6988;52.614;13.500;2023-08-08T18:13:47;54179.97;;;-143.77;75.22
13836;BME280;6988;52.614;13.500;2023-08-08T18:18:41;54145.09;;;-143.77;75.58
13836;BME280;6988;52.614;13.500;2023-08-08T18:23:33;54153.31;;;-143.77;74.54
13836;BME280;6988;52.614;13.500;2023-08-08T18:28:26;54171.78;;;-143.77;74.68
13836;BME280;6988;52.614;13.500;2023-08-08T18:33:18;54221.03;;;-143.77;74.49
13836;BME280;6988;52.614;13.500;2023-08-08T18:38:11;54200.50;;;-143.77;74.62
13836;BME280;6988;52.614;13.500;2023-08-08T18:43:03;54196.41;;;-143.77;74.75
13836;BME280;6988;52.614;13.500;2023-08-08T18:47:55;54282.56;;;-143.77;75.65
13836;BME280;6988;52.614;13.500;2023-08-08T18:52:47;54161.50;;;-143.77;75.80
13836;BME280;6988;52.614;13.500;2023-08-08T18:57:49;54212.81;;;-143.77;75.99
13836;BME280;6988;52.614;13.500;2023-08-08T19:02:41;54192.28;;;-143.77;76.00
13836;BME280;6988;52.614;13.500;2023-08-08T19:07:33;54214.88;;;-143.77;75.79
13836;BME280;6988;52.614;13.500;2023-08-08T19:12:25;54214.88;;;-143.77;76.12
13836;BME280;6988;52.614;13.500;2023-08-08T19:18:09;54210.75;;;-143.77;75.79
13836;BME280;6988;52.614;13.500;2023-08-08T19:23:02;54206.66;;;-143.77;75.77
13836;BME280;6988;52.614;13.500;2023-08-08T19:27:54;54245.63;;;-143.77;75.92
13836;BME280;6988;52.614;13.500;2023-08-08T19:32:46;54204.59;;;-143.77;75.97
13836;BME280;6988;52.614;13.500;2023-08-08T19:37:39;54202.56;;;-143.77;76.04
13836;BME280;6988;52.614;13.500;2023-08-08T19:42:31;54214.88;;;-143.77;75.92
13836;BME280;6988;52.614;13.500;2023-08-08T19:47:23;54190.25;;;-143.77;76.01
13836;BME280;6988;52.614;13.500;2023-08-08T19:52:15;54284.63;;;-143.77;76.35
13836;BME280;6988;52.614;13.500;2023-08-08T19:57:08;54218.97;;;-143.77;76.61
13836;BME280;6988;52.614;13.500;2023-08-08T20:02:00;54237.44;;;-143.77;76.93
13836;BME280;6988;52.614;13.500;2023-08-08T20:12:31;54225.13;;;-143.77;77.70
13836;BME280;6988;52.614;13.500;2023-08-08T20:17:22;54210.75;;;-143.77;78.10
13836;BME280;6988;52.614;13.500;2023-08-08T20:22:51;54196.41;;;-143.77;78.37
13836;BME280;6988;52.614;13.500;2023-08-08T20:27:45;54233.31;;;-143.77;78.20
13836;BME280;6988;52.614;13.500;2023-08-08T20:32:38;54216.91;;;-143.77;78.43
13836;BME280;6988;52.614;13.500;2023-08-08T20:38:04;54214.88;;;-143.77;78.38
13836;BME280;6988;52.614;13.500;2023-08-08T20:42:57;54262.06;;;-143.77;78.12
13836;BME280;6988;52.614;13.500;2023-08-08T20:47:52;54264.09;;;-143.77;78.03
13836;BME280;6988;52.614;13.500;2023-08-08T20:53:08;54229.22;;;-143.77;78.32
13836;BME280;6988;52.614;13.500;2023-08-08T20:58:02;54200.50;;;-143.77;78.24
13836;BME280;6988;52.614;13.500;2023-08-08T21:03:03;54208.72;;;-143.77;78.54
13836;BME280;6988;52.614;13.500;2023-08-08T21:07:55;54245.63;;;-143.77;79.22
13836;BME280;6988;52.614;13.500;2023-08-08T21:12:48;54253.84;;;-143.77;79.97
13836;BME280;6988;52.614;13.500;2023-08-08T21:17:42;54268.22;;;-143.77;77.20
13836;BME280;6988;52.614;13.500;2023-08-08T21:22:36;54286.69;;;-143.77;77.46
13836;BME280;6988;52.614;13.500;2023-08-08T21:27:28;54274.38;;;-143.77;76.89
13836;BME280;6988;52.614;13.500;2023-08-08T21:32:20;54264.09;;;-143.77;77.92
13836;BME280;6988;52.614;13.500;2023-08-08T21:37:13;54255.91;;;-143.77;78.23
13836;BME280;6988;52.614;13.500;2023-08-08T21:42:05;54262.06;;;-143.77;77.65
13836;BME280;6988;52.614;13.500;2023-08-08T22:04:16;54284.63;;;-143.77;79.20
13836;BME280;6988;52.614;13.500;2023-08-08T22:09:08;54276.41;;;-143.77;80.20
13836;BME280;6988;52.614;13.500;2023-08-08T22:14:00;54298.97;;;-143.77;80.91
13836;BME280;6988;52.614;13.500;2023-08-08T22:18:52;54329.75;;;-143.77;81.40
13836;BME280;6988;52.614;13.500;2023-08-08T22:23:46;54301.03;;;-143.77;81.53
13836;BME280;6988;52.614;13.500;2023-08-08T22:28:38;54274.38;;;-143.77;81.40
13836;BME280;6988;52.614;13.500;2023-08-08T22:33:30;54296.94;;;-143.77;81.58
13836;BME280;6988;52.614;13.500;2023-08-08T22:38:21;54249.75;;;-143.77;81.40
13836;BME280;6988;52.614;13.500;2023-08-08T22:43:15;54298.97;;;-143.77;81.50
13836;BME280;6988;52.614;13.500;2023-08-08T22:48:06;54286.69;;;-143.77;81.48
13836;BME280;6988;52.614;13.500;2023-08-08T22:52:58;54282.56;;;-143.77;81.45
13836;BME280;6988;52.614;13.500;2023-08-08T22:57:50;54290.78;;;-143.77;81.57
13836;BME280;6988;52.614;13.500;2023-08-08T23:02:43;54294.88;;;-143.77;81.26
13836;BME280;6988;52.614;13.500;2023-08-08T23:07:35;54292.84;;;-143.77;81.33
13836;BME280;6988;52.614;13.500;2023-08-08T23:12:27;54294.88;;;-143.77;81.30
13836;BME280;6988;52.614;13.500;2023-08-08T23:17:19;54278.47;;;-143.77;81.05
13836;BME280;6988;52.614;13.500;2023-08-08T23:22:12;54344.13;;;-143.77;80.97
13836;BME280;6988;52.614;13.500;2023-08-08T23:27:04;54309.25;;;-143.77;80.84
13836;BME280;6988;52.614;13.500;2023-08-08T23:31:56;54284.63;;;-143.77;81.15
13836;BME280;6988;52.614;13.500;2023-08-08T23:36:48;54352.34;;;-143.77;81.46
13836;BME280;6988;52.614;13.500;2023-08-08T23:41:42;54311.28;;;-143.77;81.72
13836;BME280;6988;52.614;13.500;2023-08-08T23:46:34;54296.94;;;-143.77;81.75
13836;BME280;6988;52.614;13.500;2023-08-08T23:51:26;54296.94;;;-143.77;81.89
13836;BME280;6988;52.614;13.500;2023-08-08T23:56:17;54309.25;;;-143.77;82.32
